• Join FlightAware (Why Join?)
  • Login
  • US Flag 
12:55AM EDT


 

Airport Tracker/Info


-or-


 

Live Flight TrackerFlight Track Log ✈ DAL1475 ✈ 18-Apr-2013 ✈ KATL - KSAV

Flight Track Log - Related Links

Times and Time Zones

All times are in EDT time to prevent confusion due to time zone crossing. See the DAL1475 flight status page for this flight to view local times or setup timezone preferences in your user account.

Time Position Orientation Groundspeed Altitude Reporting Facility
EDT Latitude Longitude Course Direction KTS MPH feet Rate Location/Type
04:41PM 33.6206 -84.3481 140° Southeast 438 504 3,500  Level Atlanta Center
04:42PM 33.6000 -84.2833 111° Southeast 263 303 5,600 2,700 Climbing Atlanta TRACON
04:43PM 33.4067 -84.2667 180° South  Level FlightAware Approximate
04:43PM 33.5167 -84.2833 180° South 274 315 8,500  Level Atlanta TRACON
04:44PM 33.3176 -84.2008 140° Southeast  Level FlightAware Approximate
04:45PM 33.2339 -84.1170 140° Southeast  Level FlightAware Approximate
04:45PM 33.3578 -84.2503 170° South 303 349 10,700  Level Atlanta Center
04:46PM 33.1502 -84.0334 140° Southeast  Level FlightAware Approximate
04:46PM 33.2786 -84.1706 140° Southeast 354 407 13,900  Level Atlanta Center
04:47PM 33.1972 -84.0886 140° Southeast 370 426 16,300 2,280 Climbing Atlanta Center
04:48PM 33.1139 -84.0042 140° Southeast 388 447 18,500 2,100 Climbing Atlanta Center
04:49PM 33.0406 -83.9025 131° Southeast 398 458 20,600 1,860 Climbing Atlanta Center
04:50PM 32.9986 -83.7664 110° East 409 471 22,300 1,200 Climbing Atlanta Center
04:51PM 32.9525 -83.6303 112° Southeast 423 487 23,000 300 Climbing Atlanta Center
04:52PM 32.9058 -83.4847 111° Southeast 446 513 23,000  Level Atlanta Center
04:53PM 32.8572 -83.3414 112° Southeast 459 528 23,000  Level Atlanta Center
04:54PM 32.8083 -83.1936 111° Southeast 464 534 23,000  Level Atlanta Center
04:55PM 32.7633 -83.0558 111° Southeast 464 534 23,000  Level Atlanta Center
04:56PM 32.7142 -82.9131 112° Southeast 464 534 23,000  Level Atlanta Center
04:57PM 32.6689 -82.7706 111° Southeast 464 534 23,000  Level Atlanta Center
04:58PM 32.6214 -82.6306 112° Southeast 464 534 23,000 -720 Level Atlanta Center
04:59PM 32.5739 -82.4908 112° Southeast 458 527 21,600 -2,040 Descending Atlanta Center
05:01PM 32.4842 -82.2253 112° Southeast 435 501 16,800 -2,340 Descending Jacksonville Center
05:02PM 32.4417 -82.1047 113° Southeast 410 472 14,600 -1,920 Descending Jacksonville Center
05:03PM 32.4033 -81.9944 112° Southeast 378 435 13,000 -840 Descending Jacksonville Center
05:04PM 32.3694 -81.8989 113° Southeast 353 406 13,000 -660 Level Jacksonville Center
05:05PM 32.3308 -81.7861 112° Southeast 353 406 11,700 -1,500 Descending Jacksonville Center
05:06PM 32.2758 -81.7106 131° Southeast 305 351 10,000 -1,500 Descending Jacksonville Center
05:07PM 32.2253 -81.6547 137° Southeast 262 302 8,700 -1,560 Descending Jacksonville Center
05:08PM 32.1767 -81.6017 137° Southeast 246 283 6,900 -2,040 Descending Jacksonville Center
05:09PM 32.1383 -81.5408 127° Southeast 229 264 4,700 -1,980 Descending Jacksonville Center
05:10PM 32.1189 -81.4722 108° East 219 252 3,000 -1,740 Descending Jacksonville Center